sensor_id;sensor_type;location;lat;lon;timestamp;temperature;humidity
20284;DHT22;10301;50.832;4.080;2022-10-28T00:02:20;18.90;1.00
20284;DHT22;10301;50.832;4.080;2022-10-28T00:04:45;18.90;1.00
20284;DHT22;10301;50.832;4.080;2022-10-28T00:07:11;18.80;1.00
20284;DHT22;10301;50.832;4.080;2022-10-28T00:09:37;19.00;1.00
20284;DHT22;10301;50.832;4.080;2022-10-28T00:12:02;18.90;1.00
20284;DHT22;10301;50.832;4.080;2022-10-28T00:14:28;18.70;1.00
20284;DHT22;10301;50.832;4.080;2022-10-28T00:16:53;18.50;7.70
20284;DHT22;10301;50.832;4.080;2022-10-28T00:19:20;18.50;8.60
20284;DHT22;10301;50.832;4.080;2022-10-28T00:21:46;18.30;16.50
20284;DHT22;10301;50.832;4.080;2022-10-28T00:24:13;18.20;21.40
20284;DHT22;10301;50.832;4.080;2022-10-28T00:26:40;18.20;20.20
20284;DHT22;10301;50.832;4.080;2022-10-28T00:29:15;18.20;24.60
20284;DHT22;10301;50.832;4.080;2022-10-28T00:31:41;18.10;25.20
20284;DHT22;10301;50.832;4.080;2022-10-28T00:34:10;18.10;24.70
20284;DHT22;10301;50.832;4.080;2022-10-28T00:36:39;18.10;23.70
20284;DHT22;10301;50.832;4.080;2022-10-28T00:39:10;18.10;26.30
20284;DHT22;10301;50.832;4.080;2022-10-28T00:41:38;18.20;20.00
20284;DHT22;10301;50.832;4.080;2022-10-28T00:47:15;18.10;24.10
20284;DHT22;10301;50.832;4.080;2022-10-28T00:49:44;18.20;22.20
20284;DHT22;10301;50.832;4.080;2022-10-28T00:52:15;18.10;21.00
20284;DHT22;10301;50.832;4.080;2022-10-28T00:54:43;18.00;23.50
20284;DHT22;10301;50.832;4.080;2022-10-28T00:57:13;18.00;27.60
20284;DHT22;10301;50.832;4.080;2022-10-28T00:59:43;18.00;25.40
20284;DHT22;10301;50.832;4.080;2022-10-28T01:02:10;18.10;17.20
20284;DHT22;10301;50.832;4.080;2022-10-28T01:04:36;18.10;17.40
20284;DHT22;10301;50.832;4.080;2022-10-28T01:07:02;18.00;22.10
20284;DHT22;10301;50.832;4.080;2022-10-28T01:09:28;18.00;23.70
20284;DHT22;10301;50.832;4.080;2022-10-28T01:17:32;18.00;23.20
20284;DHT22;10301;50.832;4.080;2022-10-28T01:23:13;17.90;25.20
20284;DHT22;10301;50.832;4.080;2022-10-28T01:28:50;17.80;28.00
20284;DHT22;10301;50.832;4.080;2022-10-28T01:34:12;17.90;22.90
20284;DHT22;10301;50.832;4.080;2022-10-28T01:42:35;17.80;26.10
20284;DHT22;10301;50.832;4.080;2022-10-28T01:50:22;17.70;28.50
20284;DHT22;10301;50.832;4.080;2022-10-28T01:52:49;17.70;28.10
20284;DHT22;10301;50.832;4.080;2022-10-28T01:55:25;17.70;31.40
20284;DHT22;10301;50.832;4.080;2022-10-28T01:57:53;17.70;29.40
20284;DHT22;10301;50.832;4.080;2022-10-28T02:00:21;17.70;29.00
20284;DHT22;10301;50.832;4.080;2022-10-28T02:02:48;17.70;27.10
20284;DHT22;10301;50.832;4.080;2022-10-28T02:05:43;17.70;27.30
20284;DHT22;10301;50.832;4.080;2022-10-28T02:13:27;17.70;28.10
20284;DHT22;10301;50.832;4.080;2022-10-28T02:24:23;17.60;30.00
20284;DHT22;10301;50.832;4.080;2022-10-28T02:27:06;17.60;30.70
20284;DHT22;10301;50.832;4.080;2022-10-28T02:29:40;17.60;28.20
20284;DHT22;10301;50.832;4.080;2022-10-28T02:32:12;17.70;29.00
20284;DHT22;10301;50.832;4.080;2022-10-28T02:34:42;17.70;24.80
20284;DHT22;10301;50.832;4.080;2022-10-28T02:37:19;17.60;26.80
20284;DHT22;10301;50.832;4.080;2022-10-28T02:39:49;17.60;28.30
20284;DHT22;10301;50.832;4.080;2022-10-28T02:42:22;17.60;28.70
20284;DHT22;10301;50.832;4.080;2022-10-28T02:45:05;17.50;30.80
20284;DHT22;10301;50.832;4.080;2022-10-28T02:47:35;17.40;35.40
20284;DHT22;10301;50.832;4.080;2022-10-28T02:50:07;17.40;36.70
20284;DHT22;10301;50.832;4.080;2022-10-28T02:52:35;17.40;38.60
20284;DHT22;10301;50.832;4.080;2022-10-28T02:55:03;17.40;40.00
20284;DHT22;10301;50.832;4.080;2022-10-28T02:57:39;17.40;37.40
20284;DHT22;10301;50.832;4.080;2022-10-28T03:00:09;17.60;32.90
20284;DHT22;10301;50.832;4.080;2022-10-28T03:02:35;17.70;26.20
20284;DHT22;10301;50.832;4.080;2022-10-28T03:05:02;17.60;31.50
20284;DHT22;10301;50.832;4.080;2022-10-28T03:07:28;17.40;33.60
20284;DHT22;10301;50.832;4.080;2022-10-28T03:09:54;17.40;33.50
20284;DHT22;10301;50.832;4.080;2022-10-28T03:12:19;17.50;31.80
20284;DHT22;10301;50.832;4.080;2022-10-28T03:14:45;17.50;31.90
20284;DHT22;10301;50.832;4.080;2022-10-28T03:17:11;17.50;29.50
20284;DHT22;10301;50.832;4.080;2022-10-28T03:19:36;17.50;29.40
20284;DHT22;10301;50.832;4.080;2022-10-28T03:22:02;17.40;33.90
20284;DHT22;10301;50.832;4.080;2022-10-28T03:24:27;17.40;32.90
20284;DHT22;10301;50.832;4.080;2022-10-28T03:26:53;17.30;39.30
20284;DHT22;10301;50.832;4.080;2022-10-28T03:29:19;17.30;36.80
20284;DHT22;10301;50.832;4.080;2022-10-28T03:31:45;17.30;38.00
20284;DHT22;10301;50.832;4.080;2022-10-28T03:34:11;17.40;36.10
20284;DHT22;10301;50.832;4.080;2022-10-28T03:36:36;17.30;35.10
20284;DHT22;10301;50.832;4.080;2022-10-28T03:39:02;17.30;38.20
20284;DHT22;10301;50.832;4.080;2022-10-28T03:41:28;17.30;37.80
20284;DHT22;10301;50.832;4.080;2022-10-28T03:43:53;17.20;38.70
20284;DHT22;10301;50.832;4.080;2022-10-28T03:46:19;17.20;39.30
20284;DHT22;10301;50.832;4.080;2022-10-28T03:48:44;17.20;37.40
20284;DHT22;10301;50.832;4.080;2022-10-28T03:51:10;17.30;39.80
20284;DHT22;10301;50.832;4.080;2022-10-28T03:53:36;17.30;36.90
20284;DHT22;10301;50.832;4.080;2022-10-28T03:56:02;17.30;34.70
20284;DHT22;10301;50.832;4.080;2022-10-28T03:58:28;17.40;33.70
20284;DHT22;10301;50.832;4.080;2022-10-28T04:00:54;17.40;31.40
20284;DHT22;10301;50.832;4.080;2022-10-28T04:03:22;17.30;33.70
20284;DHT22;10301;50.832;4.080;2022-10-28T04:05:48;17.20;37.60
20284;DHT22;10301;50.832;4.080;2022-10-28T04:08:14;17.20;41.50
20284;DHT22;10301;50.832;4.080;2022-10-28T04:10:40;17.20;39.20
20284;DHT22;10301;50.832;4.080;2022-10-28T04:13:07;17.20;38.60
20284;DHT22;10301;50.832;4.080;2022-10-28T04:15:33;17.20;39.00
20284;DHT22;10301;50.832;4.080;2022-10-28T04:17:59;17.10;39.90
20284;DHT22;10301;50.832;4.080;2022-10-28T04:20:25;17.20;37.70
20284;DHT22;10301;50.832;4.080;2022-10-28T04:22:51;17.20;37.10
20284;DHT22;10301;50.832;4.080;2022-10-28T04:25:22;17.10;39.70
20284;DHT22;10301;50.832;4.080;2022-10-28T04:27:48;17.10;41.90
20284;DHT22;10301;50.832;4.080;2022-10-28T04:30:14;17.10;39.10
20284;DHT22;10301;50.832;4.080;2022-10-28T04:32:40;17.10;42.20
20284;DHT22;10301;50.832;4.080;2022-10-28T04:35:07;17.10;41.70
20284;DHT22;10301;50.832;4.080;2022-10-28T04:37:33;17.10;41.40
20284;DHT22;10301;50.832;4.080;2022-10-28T04:39:58;17.10;41.30
20284;DHT22;10301;50.832;4.080;2022-10-28T04:42:24;17.10;39.00
20284;DHT22;10301;50.832;4.080;2022-10-28T04:44:50;17.00;42.10
20284;DHT22;10301;50.832;4.080;2022-10-28T04:47:16;17.00;42.10
20284;DHT22;10301;50.832;4.080;2022-10-28T04:49:41;17.00;43.10
20284;DHT22;10301;50.832;4.080;2022-10-28T04:52:07;17.10;39.80
20284;DHT22;10301;50.832;4.080;2022-10-28T04:54:33;17.00;40.40
20284;DHT22;10301;50.832;4.080;2022-10-28T04:56:58;17.00;43.00
20284;DHT22;10301;50.832;4.080;2022-10-28T04:59:24;17.10;41.30
20284;DHT22;10301;50.832;4.080;2022-10-28T05:01:49;17.00;41.90
20284;DHT22;10301;50.832;4.080;2022-10-28T05:04:15;17.00;42.70
20284;DHT22;10301;50.832;4.080;2022-10-28T05:06:41;17.10;39.00
20284;DHT22;10301;50.832;4.080;2022-10-28T05:09:06;17.00;41.40
20284;DHT22;10301;50.832;4.080;2022-10-28T05:11:32;17.00;44.60
20284;DHT22;10301;50.832;4.080;2022-10-28T05:13:58;17.00;42.20
20284;DHT22;10301;50.832;4.080;2022-10-28T05:16:23;17.00;41.60
20284;DHT22;10301;50.832;4.080;2022-10-28T05:18:49;17.00;40.00
20284;DHT22;10301;50.832;4.080;2022-10-28T05:21:14;17.00;39.50
20284;DHT22;10301;50.832;4.080;2022-10-28T05:23:40;17.00;41.20
20284;DHT22;10301;50.832;4.080;2022-10-28T05:26:06;17.00;40.00
20284;DHT22;10301;50.832;4.080;2022-10-28T05:28:31;17.00;38.60
20284;DHT22;10301;50.832;4.080;2022-10-28T05:30:57;17.00;37.40
20284;DHT22;10301;50.832;4.080;2022-10-28T05:33:23;17.00;40.00
20284;DHT22;10301;50.832;4.080;2022-10-28T05:35:48;16.90;40.80
20284;DHT22;10301;50.832;4.080;2022-10-28T05:38:14;17.00;41.00
20284;DHT22;10301;50.832;4.080;2022-10-28T05:40:40;17.10;35.90
20284;DHT22;10301;50.832;4.080;2022-10-28T05:43:06;17.10;32.20
20284;DHT22;10301;50.832;4.080;2022-10-28T05:45:33;17.00;32.90
20284;DHT22;10301;50.832;4.080;2022-10-28T05:47:59;17.00;34.90
20284;DHT22;10301;50.832;4.080;2022-10-28T05:50:25;17.10;30.40
20284;DHT22;10301;50.832;4.080;2022-10-28T05:52:53;17.10;29.40
20284;DHT22;10301;50.832;4.080;2022-10-28T05:55:20;17.10;28.40
20284;DHT22;10301;50.832;4.080;2022-10-28T05:57:47;17.00;32.20
20284;DHT22;10301;50.832;4.080;2022-10-28T06:00:13;17.00;34.00
20284;DHT22;10301;50.832;4.080;2022-10-28T06:02:40;17.10;30.80
20284;DHT22;10301;50.832;4.080;2022-10-28T06:05:06;17.00;35.40
20284;DHT22;10301;50.832;4.080;2022-10-28T06:07:32;17.10;32.60
20284;DHT22;10301;50.832;4.080;2022-10-28T06:09:59;17.10;28.00
20284;DHT22;10301;50.832;4.080;2022-10-28T06:12:25;17.00;32.30
20284;DHT22;10301;50.832;4.080;2022-10-28T06:14:50;17.00;34.30
20284;DHT22;10301;50.832;4.080;2022-10-28T06:17:16;16.90;39.60
20284;DHT22;10301;50.832;4.080;2022-10-28T06:19:42;16.90;38.80
20284;DHT22;10301;50.832;4.080;2022-10-28T06:22:07;16.90;41.50
20284;DHT22;10301;50.832;4.080;2022-10-28T06:24:33;17.00;37.00
20284;DHT22;10301;50.832;4.080;2022-10-28T06:26:58;17.00;33.50
20284;DHT22;10301;50.832;4.080;2022-10-28T06:29:24;17.00;34.70
20284;DHT22;10301;50.832;4.080;2022-10-28T06:31:50;17.10;35.40
20284;DHT22;10301;50.832;4.080;2022-10-28T06:34:15;17.10;28.10
20284;DHT22;10301;50.832;4.080;2022-10-28T06:36:41;17.10;27.90
20284;DHT22;10301;50.832;4.080;2022-10-28T06:39:07;17.10;32.30
20284;DHT22;10301;50.832;4.080;2022-10-28T06:41:33;17.20;28.60
20284;DHT22;10301;50.832;4.080;2022-10-28T06:43:58;17.20;27.80
20284;DHT22;10301;50.832;4.080;2022-10-28T06:46:24;17.40;20.70
20284;DHT22;10301;50.832;4.080;2022-10-28T06:48:49;17.50;18.30
20284;DHT22;10301;50.832;4.080;2022-10-28T06:51:17;17.40;18.90
20284;DHT22;10301;50.832;4.080;2022-10-28T06:53:43;17.40;20.90
20284;DHT22;10301;50.832;4.080;2022-10-28T06:56:12;17.50;19.60
20284;DHT22;10301;50.832;4.080;2022-10-28T06:58:38;17.60;15.70
20284;DHT22;10301;50.832;4.080;2022-10-28T07:01:04;17.60;14.30
20284;DHT22;10301;50.832;4.080;2022-10-28T07:03:29;17.60;16.90
20284;DHT22;10301;50.832;4.080;2022-10-28T07:05:57;17.70;12.90
20284;DHT22;10301;50.832;4.080;2022-10-28T07:08:23;17.80;3.80
20284;DHT22;10301;50.832;4.080;2022-10-28T07:10:56;17.60;11.50
20284;DHT22;10301;50.832;4.080;2022-10-28T07:13:23;17.70;11.40
20284;DHT22;10301;50.832;4.080;2022-10-28T07:15:56;17.60;13.00
20284;DHT22;10301;50.832;4.080;2022-10-28T07:18:24;17.50;22.50
20284;DHT22;10301;50.832;4.080;2022-10-28T07:20:50;17.50;23.80
20284;DHT22;10301;50.832;4.080;2022-10-28T07:23:16;17.70;20.70
20284;DHT22;10301;50.832;4.080;2022-10-28T07:25:42;17.60;21.50
20284;DHT22;10301;50.832;4.080;2022-10-28T07:28:08;17.80;12.00
20284;DHT22;10301;50.832;4.080;2022-10-28T07:30:34;18.00;3.30
20284;DHT22;10301;50.832;4.080;2022-10-28T07:32:59;18.20;1.00
20284;DHT22;10301;50.832;4.080;2022-10-28T07:35:29;18.30;1.00
20284;DHT22;10301;50.832;4.080;2022-10-28T07:37:58;18.20;1.00
20284;DHT22;10301;50.832;4.080;2022-10-28T07:40:25;18.40;1.00
20284;DHT22;10301;50.832;4.080;2022-10-28T07:42:50;18.70;1.00
20284;DHT22;10301;50.832;4.080;2022-10-28T07:45:17;18.70;1.00
20284;DHT22;10301;50.832;4.080;2022-10-28T07:47:43;18.80;1.00
20284;DHT22;10301;50.832;4.080;2022-10-28T07:50:09;18.90;1.00
20284;DHT22;10301;50.832;4.080;2022-10-28T07:52:35;19.20;1.00
20284;DHT22;10301;50.832;4.080;2022-10-28T07:55:02;18.90;1.00
20284;DHT22;10301;50.832;4.080;2022-10-28T07:57:28;19.10;1.00
20284;DHT22;10301;50.832;4.080;2022-10-28T07:59:53;19.10;1.00
20284;DHT22;10301;50.832;4.080;2022-10-28T08:02:21;19.10;1.00
20284;DHT22;10301;50.832;4.080;2022-10-28T08:04:47;19.00;1.00
20284;DHT22;10301;50.832;4.080;2022-10-28T08:07:14;18.90;1.00
20284;DHT22;10301;50.832;4.080;2022-10-28T08:09:40;19.00;1.00
20284;DHT22;10301;50.832;4.080;2022-10-28T08:12:07;19.10;1.00
20284;DHT22;10301;50.832;4.080;2022-10-28T08:14:33;19.20;1.00
20284;DHT22;10301;50.832;4.080;2022-10-28T08:16:59;19.20;1.00
20284;DHT22;10301;50.832;4.080;2022-10-28T08:19:25;19.00;1.00
20284;DHT22;10301;50.832;4.080;2022-10-28T08:21:51;19.30;1.00
20284;DHT22;10301;50.832;4.080;2022-10-28T08:24:17;19.40;1.00
20284;DHT22;10301;50.832;4.080;2022-10-28T08:26:42;19.60;1.00
20284;DHT22;10301;50.832;4.080;2022-10-28T08:29:11;19.50;1.00
20284;DHT22;10301;50.832;4.080;2022-10-28T08:31:40;19.20;1.00
20284;DHT22;10301;50.832;4.080;2022-10-28T08:34:06;19.40;1.00
20284;DHT22;10301;50.832;4.080;2022-10-28T08:36:32;19.10;1.00
20284;DHT22;10301;50.832;4.080;2022-10-28T08:38:58;18.90;1.00
20284;DHT22;10301;50.832;4.080;2022-10-28T08:47:12;19.10;1.00
20284;DHT22;10301;50.832;4.080;2022-10-28T08:49:41;19.30;1.00
20284;DHT22;10301;50.832;4.080;2022-10-28T08:52:15;19.40;1.00
20284;DHT22;10301;50.832;4.080;2022-10-28T08:54:53;19.40;1.00
20284;DHT22;10301;50.832;4.080;2022-10-28T08:57:31;19.40;1.00
20284;DHT22;10301;50.832;4.080;2022-10-28T08:59:58;19.50;1.00
20284;DHT22;10301;50.832;4.080;2022-10-28T09:02:27;19.60;1.00
20284;DHT22;10301;50.832;4.080;2022-10-28T09:05:05;19.70;1.00
20284;DHT22;10301;50.832;4.080;2022-10-28T09:07:33;19.70;1.00
20284;DHT22;10301;50.832;4.080;2022-10-28T09:10:00;19.70;1.00
20284;DHT22;10301;50.832;4.080;2022-10-28T09:15:30;20.00;1.00
20284;DHT22;10301;50.832;4.080;2022-10-28T09:18:17;20.10;1.00
20284;DHT22;10301;50.832;4.080;2022-10-28T09:20:56;20.10;1.00
20284;DHT22;10301;50.832;4.080;2022-10-28T09:23:26;20.10;1.00
20284;DHT22;10301;50.832;4.080;2022-10-28T09:31:35;20.40;1.00
20284;DHT22;10301;50.832;4.080;2022-10-28T09:36:47;20.70;1.00
20284;DHT22;10301;50.832;4.080;2022-10-28T09:39:26;20.70;1.00
20284;DHT22;10301;50.832;4.080;2022-10-28T09:41:54;20.70;1.00
20284;DHT22;10301;50.832;4.080;2022-10-28T09:44:27;20.80;1.00
20284;DHT22;10301;50.832;4.080;2022-10-28T09:46:55;20.70;1.00
20284;DHT22;10301;50.832;4.080;2022-10-28T09:49:27;20.70;1.00
20284;DHT22;10301;50.832;4.080;2022-10-28T09:52:03;20.60;1.00
20284;DHT22;10301;50.832;4.080;2022-10-28T09:54:35;20.70;1.00
20284;DHT22;10301;50.832;4.080;2022-10-28T09:57:01;20.70;1.00
20284;DHT22;10301;50.832;4.080;2022-10-28T09:59:28;20.80;1.00
20284;DHT22;10301;50.832;4.080;2022-10-28T10:01:54;21.00;1.00
20284;DHT22;10301;50.832;4.080;2022-10-28T10:04:22;21.00;1.00
20284;DHT22;10301;50.832;4.080;2022-10-28T10:07:07;21.30;1.00
20284;DHT22;10301;50.832;4.080;2022-10-28T10:09:36;21.70;1.00
20284;DHT22;10301;50.832;4.080;2022-10-28T10:12:08;21.80;99.90
20284;DHT22;10301;50.832;4.080;2022-10-28T10:14:41;21.90;99.90
20284;DHT22;10301;50.832;4.080;2022-10-28T10:17:20;22.10;69.80
20284;DHT22;10301;50.832;4.080;2022-10-28T10:20:19;22.10;99.90
20284;DHT22;10301;50.832;4.080;2022-10-28T10:22:47;22.50;1.00
20284;DHT22;10301;50.832;4.080;2022-10-28T10:27:52;22.70;91.20
20284;DHT22;10301;50.832;4.080;2022-10-28T10:30:29;22.60;99.90
20284;DHT22;10301;50.832;4.080;2022-10-28T10:32:56;22.50;1.00
20284;DHT22;10301;50.832;4.080;2022-10-28T10:37:50;22.80;30.40
20284;DHT22;10301;50.832;4.080;2022-10-28T10:40:25;22.60;99.90
20284;DHT22;10301;50.832;4.080;2022-10-28T10:42:55;22.70;1.00
20284;DHT22;10301;50.832;4.080;2022-10-28T10:45:38;22.70;99.90
20284;DHT22;10301;50.832;4.080;2022-10-28T10:48:14;22.90;1.00
20284;DHT22;10301;50.832;4.080;2022-10-28T10:50:47;22.90;1.00
20284;DHT22;10301;50.832;4.080;2022-10-28T10:53:33;23.00;1.00
20284;DHT22;10301;50.832;4.080;2022-10-28T10:56:00;22.70;1.00
20284;DHT22;10301;50.832;4.080;2022-10-28T10:58:39;22.90;1.00
20284;DHT22;10301;50.832;4.080;2022-10-28T11:01:18;22.90;99.90
20284;DHT22;10301;50.832;4.080;2022-10-28T11:04:04;22.90;1.00
20284;DHT22;10301;50.832;4.080;2022-10-28T11:06:38;22.70;1.00
20284;DHT22;10301;50.832;4.080;2022-10-28T11:11:53;22.50;99.90
20284;DHT22;10301;50.832;4.080;2022-10-28T11:14:26;22.80;1.00
20284;DHT22;10301;50.832;4.080;2022-10-28T11:16:58;22.80;1.00
20284;DHT22;10301;50.832;4.080;2022-10-28T11:19:35;22.80;1.00
20284;DHT22;10301;50.832;4.080;2022-10-28T11:25:36;22.60;1.00
20284;DHT22;10301;50.832;4.080;2022-10-28T11:28:37;22.60;1.00
20284;DHT22;10301;50.832;4.080;2022-10-28T11:49:13;22.70;1.00
20284;DHT22;10301;50.832;4.080;2022-10-28T11:51:19;22.70;1.00
20284;DHT22;10301;50.832;4.080;2022-10-28T11:54:09;22.80;1.00
20284;DHT22;10301;50.832;4.080;2022-10-28T11:56:42;22.80;96.70
20284;DHT22;10301;50.832;4.080;2022-10-28T11:59:34;22.80;1.00
20284;DHT22;10301;50.832;4.080;2022-10-28T12:04:50;22.80;1.00
20284;DHT22;10301;50.832;4.080;2022-10-28T12:08:04;22.90;1.00
20284;DHT22;10301;50.832;4.080;2022-10-28T12:10:27;22.90;1.00
20284;DHT22;10301;50.832;4.080;2022-10-28T12:18:32;23.20;87.80
20284;DHT22;10301;50.832;4.080;2022-10-28T12:21:06;23.10;99.90
20284;DHT22;10301;50.832;4.080;2022-10-28T12:23:37;23.20;99.90
20284;DHT22;10301;50.832;4.080;2022-10-28T12:26:07;23.00;1.00
20284;DHT22;10301;50.832;4.080;2022-10-28T12:31:17;23.10;1.00
20284;DHT22;10301;50.832;4.080;2022-10-28T12:33:47;23.10;1.00
20284;DHT22;10301;50.832;4.080;2022-10-28T12:44:31;23.10;1.00
20284;DHT22;10301;50.832;4.080;2022-10-28T12:49:56;23.10;1.00
20284;DHT22;10301;50.832;4.080;2022-10-28T12:55:36;23.10;1.00
20284;DHT22;10301;50.832;4.080;2022-10-28T12:58:14;23.10;1.00
20284;DHT22;10301;50.832;4.080;2022-10-28T13:00:48;23.00;99.90
20284;DHT22;10301;50.832;4.080;2022-10-28T13:03:15;22.90;1.00
20284;DHT22;10301;50.832;4.080;2022-10-28T13:25:36;23.10;76.90
20284;DHT22;10301;50.832;4.080;2022-10-28T13:28:02;23.30;1.00
20284;DHT22;10301;50.832;4.080;2022-10-28T13:30:28;23.20;99.90
20284;DHT22;10301;50.832;4.080;2022-10-28T13:33:08;23.20;99.90
20284;DHT22;10301;50.832;4.080;2022-10-28T13:35:38;23.40;1.00
20284;DHT22;10301;50.832;4.080;2022-10-28T13:38:09;23.60;1.00
20284;DHT22;10301;50.832;4.080;2022-10-28T13:43:01;23.60;99.90
20284;DHT22;10301;50.832;4.080;2022-10-28T13:45:46;23.60;1.00
20284;DHT22;10301;50.832;4.080;2022-10-28T13:56:15;23.60;1.00
20284;DHT22;10301;50.832;4.080;2022-10-28T13:58:57;23.80;97.60
20284;DHT22;10301;50.832;4.080;2022-10-28T14:04:27;23.90;27.40
20284;DHT22;10301;50.832;4.080;2022-10-28T14:09:33;24.10;99.90
20284;DHT22;10301;50.832;4.080;2022-10-28T14:12:20;24.10;99.90
20284;DHT22;10301;50.832;4.080;2022-10-28T14:17:41;23.90;1.00
20284;DHT22;10301;50.832;4.080;2022-10-28T14:20:23;23.70;1.00
20284;DHT22;10301;50.832;4.080;2022-10-28T14:22:49;23.50;1.00
20284;DHT22;10301;50.832;4.080;2022-10-28T14:41:44;23.60;1.00
20284;DHT22;10301;50.832;4.080;2022-10-28T14:52:28;23.10;99.90
20284;DHT22;10301;50.832;4.080;2022-10-28T14:54:58;23.10;1.00
20284;DHT22;10301;50.832;4.080;2022-10-28T14:57:31;23.30;99.90
20284;DHT22;10301;50.832;4.080;2022-10-28T15:00:03;23.10;1.00
20284;DHT22;10301;50.832;4.080;2022-10-28T15:02:31;23.10;1.00
20284;DHT22;10301;50.832;4.080;2022-10-28T15:05:13;23.00;1.00
20284;DHT22;10301;50.832;4.080;2022-10-28T15:07:40;23.10;1.00
20284;DHT22;10301;50.832;4.080;2022-10-28T15:10:17;23.00;1.00
20284;DHT22;10301;50.832;4.080;2022-10-28T15:12:45;22.90;77.90
20284;DHT22;10301;50.832;4.080;2022-10-28T15:15:22;22.70;99.90
20284;DHT22;10301;50.832;4.080;2022-10-28T15:17:48;22.70;99.90
20284;DHT22;10301;50.832;4.080;2022-10-28T15:22:49;22.90;99.90
20284;DHT22;10301;50.832;4.080;2022-10-28T15:25:17;23.00;99.90
20284;DHT22;10301;50.832;4.080;2022-10-28T15:27:44;22.90;99.90
20284;DHT22;10301;50.832;4.080;2022-10-28T15:30:20;22.90;99.90
20284;DHT22;10301;50.832;4.080;2022-10-28T15:33:56;22.80;99.90
20284;DHT22;10301;50.832;4.080;2022-10-28T15:38:36;22.60;1.00
20284;DHT22;10301;50.832;4.080;2022-10-28T15:41:45;22.40;1.00
20284;DHT22;10301;50.832;4.080;2022-10-28T15:44:33;22.40;1.00
20284;DHT22;10301;50.832;4.080;2022-10-28T15:47:44;22.40;1.00
20284;DHT22;10301;50.832;4.080;2022-10-28T15:50:03;22.30;1.00
20284;DHT22;10301;50.832;4.080;2022-10-28T15:52:32;22.10;1.00
20284;DHT22;10301;50.832;4.080;2022-10-28T16:00:35;22.00;1.00
20284;DHT22;10301;50.832;4.080;2022-10-28T16:03:25;22.00;1.00
20284;DHT22;10301;50.832;4.080;2022-10-28T16:05:56;21.90;1.00
20284;DHT22;10301;50.832;4.080;2022-10-28T16:08:31;21.80;1.00
20284;DHT22;10301;50.832;4.080;2022-10-28T16:11:00;21.80;1.00
20284;DHT22;10301;50.832;4.080;2022-10-28T16:13:33;21.70;1.00
20284;DHT22;10301;50.832;4.080;2022-10-28T16:16:11;21.70;1.00
20284;DHT22;10301;50.832;4.080;2022-10-28T16:18:44;21.60;1.00
20284;DHT22;10301;50.832;4.080;2022-10-28T16:21:21;21.50;1.00
20284;DHT22;10301;50.832;4.080;2022-10-28T16:23:49;21.50;1.00
20284;DHT22;10301;50.832;4.080;2022-10-28T16:26:16;21.40;1.00
20284;DHT22;10301;50.832;4.080;2022-10-28T16:28:42;21.20;1.00
20284;DHT22;10301;50.832;4.080;2022-10-28T16:31:13;21.20;1.00
20284;DHT22;10301;50.832;4.080;2022-10-28T16:33:40;21.10;1.00
20284;DHT22;10301;50.832;4.080;2022-10-28T16:36:06;21.10;1.00
20284;DHT22;10301;50.832;4.080;2022-10-28T16:38:32;21.10;1.00
20284;DHT22;10301;50.832;4.080;2022-10-28T16:40:58;21.10;1.00
20284;DHT22;10301;50.832;4.080;2022-10-28T16:43:26;21.00;1.00
20284;DHT22;10301;50.832;4.080;2022-10-28T16:45:54;21.00;1.00
20284;DHT22;10301;50.832;4.080;2022-10-28T16:48:25;20.90;1.00
20284;DHT22;10301;50.832;4.080;2022-10-28T16:50:56;20.90;1.00
20284;DHT22;10301;50.832;4.080;2022-10-28T16:53:23;21.00;1.00
20284;DHT22;10301;50.832;4.080;2022-10-28T16:55:49;21.00;1.00
20284;DHT22;10301;50.832;4.080;2022-10-28T16:58:15;20.90;1.00
20284;DHT22;10301;50.832;4.080;2022-10-28T17:00:41;20.80;1.00
20284;DHT22;10301;50.832;4.080;2022-10-28T17:03:11;20.70;1.00
20284;DHT22;10301;50.832;4.080;2022-10-28T17:05:38;20.60;1.00
20284;DHT22;10301;50.832;4.080;2022-10-28T17:08:04;20.60;1.00
20284;DHT22;10301;50.832;4.080;2022-10-28T17:10:29;20.70;1.00
20284;DHT22;10301;50.832;4.080;2022-10-28T17:12:55;20.80;1.00
20284;DHT22;10301;50.832;4.080;2022-10-28T17:15:21;20.90;1.00
20284;DHT22;10301;50.832;4.080;2022-10-28T17:17:49;20.90;1.00
20284;DHT22;10301;50.832;4.080;2022-10-28T17:20:15;21.00;1.00
20284;DHT22;10301;50.832;4.080;2022-10-28T17:22:40;21.10;1.00
20284;DHT22;10301;50.832;4.080;2022-10-28T17:25:07;21.10;1.00
20284;DHT22;10301;50.832;4.080;2022-10-28T17:27:32;21.20;1.00
20284;DHT22;10301;50.832;4.080;2022-10-28T17:29:58;21.00;1.00
20284;DHT22;10301;50.832;4.080;2022-10-28T17:32:23;20.80;1.00
20284;DHT22;10301;50.832;4.080;2022-10-28T17:34:49;20.70;1.00
20284;DHT22;10301;50.832;4.080;2022-10-28T17:37:15;20.40;1.00
20284;DHT22;10301;50.832;4.080;2022-10-28T17:39:40;20.20;1.00
20284;DHT22;10301;50.832;4.080;2022-10-28T17:42:07;19.90;1.00
20284;DHT22;10301;50.832;4.080;2022-10-28T17:44:33;19.90;1.00
20284;DHT22;10301;50.832;4.080;2022-10-28T17:46:58;19.90;1.00
20284;DHT22;10301;50.832;4.080;2022-10-28T17:49:24;20.00;1.00
20284;DHT22;10301;50.832;4.080;2022-10-28T17:51:50;20.20;1.00
20284;DHT22;10301;50.832;4.080;2022-10-28T17:54:16;20.40;1.00
20284;DHT22;10301;50.832;4.080;2022-10-28T17:56:42;20.60;1.00
20284;DHT22;10301;50.832;4.080;2022-10-28T17:59:08;20.90;1.00
20284;DHT22;10301;50.832;4.080;2022-10-28T18:01:34;21.00;1.00
20284;DHT22;10301;50.832;4.080;2022-10-28T18:04:00;21.10;1.00
20284;DHT22;10301;50.832;4.080;2022-10-28T18:06:25;20.80;1.00
20284;DHT22;10301;50.832;4.080;2022-10-28T18:08:52;20.60;1.00
20284;DHT22;10301;50.832;4.080;2022-10-28T18:11:18;20.60;1.00
20284;DHT22;10301;50.832;4.080;2022-10-28T18:13:47;20.50;1.00
20284;DHT22;10301;50.832;4.080;2022-10-28T18:16:19;20.30;1.00
20284;DHT22;10301;50.832;4.080;2022-10-28T18:18:45;20.20;1.00
20284;DHT22;10301;50.832;4.080;2022-10-28T18:21:12;20.20;1.00
20284;DHT22;10301;50.832;4.080;2022-10-28T18:23:38;20.40;1.00
20284;DHT22;10301;50.832;4.080;2022-10-28T18:26:12;20.40;1.00
20284;DHT22;10301;50.832;4.080;2022-10-28T18:28:38;20.40;1.00
20284;DHT22;10301;50.832;4.080;2022-10-28T18:31:15;20.20;1.00
20284;DHT22;10301;50.832;4.080;2022-10-28T18:33:42;19.90;1.00
20284;DHT22;10301;50.832;4.080;2022-10-28T18:36:27;19.70;1.00
20284;DHT22;10301;50.832;4.080;2022-10-28T18:38:55;19.60;1.00
20284;DHT22;10301;50.832;4.080;2022-10-28T18:41:23;19.70;1.00
20284;DHT22;10301;50.832;4.080;2022-10-28T18:43:57;19.80;1.00
20284;DHT22;10301;50.832;4.080;2022-10-28T18:46:24;19.70;1.00
20284;DHT22;10301;50.832;4.080;2022-10-28T18:48:50;19.50;2.50
20284;DHT22;10301;50.832;4.080;2022-10-28T18:51:16;19.60;3.90
20284;DHT22;10301;50.832;4.080;2022-10-28T18:53:44;19.60;1.00
20284;DHT22;10301;50.832;4.080;2022-10-28T18:56:13;19.60;1.00
20284;DHT22;10301;50.832;4.080;2022-10-28T18:58:40;19.50;2.40
20284;DHT22;10301;50.832;4.080;2022-10-28T19:01:11;19.50;6.30